sensor_id;sensor_type;location;lat;lon;timestamp;pressure;altitude;pressure_sealevel;temperature;humidity
6778;BME280;3426;52.244;10.534;2023-02-19T00:01:10;100595.47;;;12.99;69.86
6778;BME280;3426;52.244;10.534;2023-02-19T00:03:38;100598.78;;;13.30;69.18
6778;BME280;3426;52.244;10.534;2023-02-19T00:06:06;100587.91;;;12.09;73.91
6778;BME280;3426;52.244;10.534;2023-02-19T00:08:35;100568.53;;;12.07;74.70
6778;BME280;3426;52.244;10.534;2023-02-19T00:11:03;100551.91;;;12.46;73.29
6778;BME280;3426;52.244;10.534;2023-02-19T00:13:33;100528.94;;;12.60;73.60
6778;BME280;3426;52.244;10.534;2023-02-19T00:16:05;100538.50;;;12.21;75.10
6778;BME280;3426;52.244;10.534;2023-02-19T00:18:31;100560.50;;;12.37;73.83
6778;BME280;3426;52.244;10.534;2023-02-19T00:20:58;100571.47;;;12.60;72.93
6778;BME280;3426;52.244;10.534;2023-02-19T00:23:24;100555.28;;;12.22;75.91
6778;BME280;3426;52.244;10.534;2023-02-19T00:25:52;100552.75;;;11.91;75.68
6778;BME280;3426;52.244;10.534;2023-02-19T00:28:19;100548.84;;;11.83;77.15
6778;BME280;3426;52.244;10.534;2023-02-19T00:30:46;100551.56;;;12.38;75.36
6778;BME280;3426;52.244;10.534;2023-02-19T00:33:13;100554.41;;;12.35;75.11
6778;BME280;3426;52.244;10.534;2023-02-19T00:35:40;100538.56;;;12.48;73.81
6778;BME280;3426;52.244;10.534;2023-02-19T00:38:07;100542.84;;;12.22;76.08
6778;BME280;3426;52.244;10.534;2023-02-19T00:40:33;100537.00;;;12.03;75.51
6778;BME280;3426;52.244;10.534;2023-02-19T00:42:59;100540.53;;;11.73;76.83
6778;BME280;3426;52.244;10.534;2023-02-19T00:45:26;100527.66;;;11.67;76.94
6778;BME280;3426;52.244;10.534;2023-02-19T00:47:52;100527.28;;;12.44;74.11
6778;BME280;3426;52.244;10.534;2023-02-19T00:50:19;100533.38;;;11.89;75.72
6778;BME280;3426;52.244;10.534;2023-02-19T00:52:45;100531.94;;;12.12;74.59
6778;BME280;3426;52.244;10.534;2023-02-19T00:55:12;100517.53;;;12.72;72.92
6778;BME280;3426;52.244;10.534;2023-02-19T00:57:38;100519.31;;;11.73;75.51
6778;BME280;3426;52.244;10.534;2023-02-19T01:02:35;100510.81;;;12.52;73.83
6778;BME280;3426;52.244;10.534;2023-02-19T01:05:01;100518.06;;;12.50;73.23
6778;BME280;3426;52.244;10.534;2023-02-19T01:07:27;100508.31;;;11.79;76.99
6778;BME280;3426;52.244;10.534;2023-02-19T01:09:54;100499.28;;;11.98;75.65
6778;BME280;3426;52.244;10.534;2023-02-19T01:12:20;100499.41;;;12.23;74.36
6778;BME280;3426;52.244;10.534;2023-02-19T01:14:49;100497.13;;;12.72;71.96
6778;BME280;3426;52.244;10.534;2023-02-19T01:17:15;100484.66;;;12.05;73.34
6778;BME280;3426;52.244;10.534;2023-02-19T01:19:42;100482.25;;;12.29;75.11
6778;BME280;3426;52.244;10.534;2023-02-19T01:22:08;100476.88;;;12.02;75.10
6778;BME280;3426;52.244;10.534;2023-02-19T01:24:35;100466.59;;;12.38;73.74
6778;BME280;3426;52.244;10.534;2023-02-19T01:27:01;100459.88;;;12.60;73.86
6778;BME280;3426;52.244;10.534;2023-02-19T01:29:28;100459.06;;;12.72;73.44
6778;BME280;3426;52.244;10.534;2023-02-19T01:31:54;100453.06;;;12.95;72.10
6778;BME280;3426;52.244;10.534;2023-02-19T01:34:21;100445.28;;;12.92;72.40
6778;BME280;3426;52.244;10.534;2023-02-19T01:36:47;100439.81;;;12.81;73.44
6778;BME280;3426;52.244;10.534;2023-02-19T01:39:14;100425.19;;;12.88;72.71
6778;BME280;3426;52.244;10.534;2023-02-19T01:41:40;100424.53;;;12.85;72.94
6778;BME280;3426;52.244;10.534;2023-02-19T01:46:53;100432.47;;;12.18;77.03
6778;BME280;3426;52.244;10.534;2023-02-19T01:49:27;100433.31;;;12.60;75.99
6778;BME280;3426;52.244;10.534;2023-02-19T01:52:00;100445.81;;;12.04;77.55
6778;BME280;3426;52.244;10.534;2023-02-19T01:54:31;100439.91;;;11.56;79.85
6778;BME280;3426;52.244;10.534;2023-02-19T01:57:03;100447.28;;;12.08;77.76
6778;BME280;3426;52.244;10.534;2023-02-19T01:59:32;100458.41;;;11.57;80.30
6778;BME280;3426;52.244;10.534;2023-02-19T02:01:59;100466.59;;;12.38;78.73
6778;BME280;3426;52.244;10.534;2023-02-19T02:04:29;100453.84;;;12.43;77.22
6778;BME280;3426;52.244;10.534;2023-02-19T02:06:57;100458.34;;;11.87;78.34
6778;BME280;3426;52.244;10.534;2023-02-19T02:09:26;100441.28;;;12.33;78.69
6778;BME280;3426;52.244;10.534;2023-02-19T02:12:12;100441.41;;;12.17;79.03
6778;BME280;3426;52.244;10.534;2023-02-19T02:14:42;100444.63;;;12.08;79.04
6778;BME280;3426;52.244;10.534;2023-02-19T02:17:23;100439.94;;;11.84;82.04
6778;BME280;3426;52.244;10.534;2023-02-19T02:31:34;100433.16;;;10.77;84.04
6778;BME280;3426;52.244;10.534;2023-02-19T02:34:18;100425.28;;;11.06;84.04
6778;BME280;3426;52.244;10.534;2023-02-19T02:36:49;100425.22;;;10.47;84.32
6778;BME280;3426;52.244;10.534;2023-02-19T02:39:19;100421.88;;;11.04;82.76
6778;BME280;3426;52.244;10.534;2023-02-19T02:41:55;100407.16;;;11.43;80.02
6778;BME280;3426;52.244;10.534;2023-02-19T02:44:41;100413.00;;;11.76;79.69
6778;BME280;3426;52.244;10.534;2023-02-19T02:47:30;100413.75;;;11.21;81.83
6778;BME280;3426;52.244;10.534;2023-02-19T02:50:19;100417.78;;;10.84;82.12
6778;BME280;3426;52.244;10.534;2023-02-19T02:52:50;100429.88;;;10.58;83.48
6778;BME280;3426;52.244;10.534;2023-02-19T02:55:40;100431.47;;;10.30;85.16
6778;BME280;3426;52.244;10.534;2023-02-19T02:58:09;100430.19;;;10.83;82.61
6778;BME280;3426;52.244;10.534;2023-02-19T03:00:37;100428.16;;;10.27;84.45
6778;BME280;3426;52.244;10.534;2023-02-19T03:03:25;100428.91;;;10.45;85.06
6778;BME280;3426;52.244;10.534;2023-02-19T03:05:57;100424.69;;;10.56;84.35
6778;BME280;3426;52.244;10.534;2023-02-19T03:08:30;100408.19;;;11.26;82.72
6778;BME280;3426;52.244;10.534;2023-02-19T03:11:01;100416.00;;;10.99;83.34
6778;BME280;3426;52.244;10.534;2023-02-19T03:14:00;100414.09;;;10.56;82.74
6778;BME280;3426;52.244;10.534;2023-02-19T03:16:50;100417.47;;;10.88;81.39
6778;BME280;3426;52.244;10.534;2023-02-19T03:19:44;100418.31;;;10.45;84.12
6778;BME280;3426;52.244;10.534;2023-02-19T03:22:22;100415.63;;;10.91;81.54
6778;BME280;3426;52.244;10.534;2023-02-19T03:24:58;100413.69;;;10.78;82.02
6778;BME280;3426;52.244;10.534;2023-02-19T03:27:45;100413.28;;;10.24;85.14
6778;BME280;3426;52.244;10.534;2023-02-19T03:30:18;100417.53;;;9.95;86.52
6778;BME280;3426;52.244;10.534;2023-02-19T03:32:50;100417.78;;;10.22;86.73
6778;BME280;3426;52.244;10.534;2023-02-19T03:35:21;100414.72;;;10.30;85.50
6778;BME280;3426;52.244;10.534;2023-02-19T03:38:17;100416.66;;;10.58;86.49
6778;BME280;3426;52.244;10.534;2023-02-19T03:40:54;100414.91;;;10.73;86.40
6778;BME280;3426;52.244;10.534;2023-02-19T03:43:39;100410.75;;;10.53;85.37
6778;BME280;3426;52.244;10.534;2023-02-19T03:48:51;100403.84;;;10.80;84.45
6778;BME280;3426;52.244;10.534;2023-02-19T03:51:41;100430.44;;;11.66;80.94
6778;BME280;3426;52.244;10.534;2023-02-19T03:54:11;100444.59;;;10.32;84.85
6778;BME280;3426;52.244;10.534;2023-02-19T03:56:49;100464.56;;;9.57;85.89
6778;BME280;3426;52.244;10.534;2023-02-19T03:59:20;100475.50;;;8.27;88.39
6778;BME280;3426;52.244;10.534;2023-02-19T04:01:53;100491.06;;;8.33;90.04
6778;BME280;3426;52.244;10.534;2023-02-19T04:04:30;100511.47;;;9.01;87.34
6778;BME280;3426;52.244;10.534;2023-02-19T04:06:58;100506.34;;;8.07;89.28
6778;BME280;3426;52.244;10.534;2023-02-19T04:09:28;100512.19;;;9.40;85.96
6778;BME280;3426;52.244;10.534;2023-02-19T04:11:57;100514.84;;;7.93;89.04
6778;BME280;3426;52.244;10.534;2023-02-19T04:17:00;100529.81;;;7.93;88.40
6778;BME280;3426;52.244;10.534;2023-02-19T04:19:31;100538.38;;;7.98;88.75
6778;BME280;3426;52.244;10.534;2023-02-19T04:21:59;100537.91;;;8.09;87.15
6778;BME280;3426;52.244;10.534;2023-02-19T04:24:36;100545.09;;;7.05;90.34
6778;BME280;3426;52.244;10.534;2023-02-19T04:27:04;100544.25;;;7.45;88.92
6778;BME280;3426;52.244;10.534;2023-02-19T04:29:31;100538.22;;;7.01;89.08
6778;BME280;3426;52.244;10.534;2023-02-19T04:31:58;100537.53;;;6.53;90.35
6778;BME280;3426;52.244;10.534;2023-02-19T04:34:24;100547.69;;;7.47;89.18
6778;BME280;3426;52.244;10.534;2023-02-19T04:36:51;100559.38;;;6.99;87.67
6778;BME280;3426;52.244;10.534;2023-02-19T04:39:17;100563.75;;;7.21;88.06
6778;BME280;3426;52.244;10.534;2023-02-19T04:41:44;100572.66;;;6.96;88.38
6778;BME280;3426;52.244;10.534;2023-02-19T04:44:10;100579.31;;;7.27;87.91
6778;BME280;3426;52.244;10.534;2023-02-19T04:46:36;100576.28;;;7.14;87.02
6778;BME280;3426;52.244;10.534;2023-02-19T04:49:03;100579.19;;;6.86;88.03
6778;BME280;3426;52.244;10.534;2023-02-19T04:51:29;100577.66;;;7.02;87.63
6778;BME280;3426;52.244;10.534;2023-02-19T04:53:56;100587.69;;;7.14;87.21
6778;BME280;3426;52.244;10.534;2023-02-19T04:56:22;100601.03;;;7.32;87.06
6778;BME280;3426;52.244;10.534;2023-02-19T04:58:49;100612.31;;;7.56;86.06
6778;BME280;3426;52.244;10.534;2023-02-19T05:01:16;100607.00;;;7.78;84.24
6778;BME280;3426;52.244;10.534;2023-02-19T05:03:43;100616.44;;;8.22;84.42
6778;BME280;3426;52.244;10.534;2023-02-19T05:06:11;100617.50;;;8.94;79.99
6778;BME280;3426;52.244;10.534;2023-02-19T05:08:38;100609.09;;;7.90;82.30
6778;BME280;3426;52.244;10.534;2023-02-19T05:11:07;100619.34;;;7.13;85.01
6778;BME280;3426;52.244;10.534;2023-02-19T05:13:35;100633.59;;;7.51;85.15
6778;BME280;3426;52.244;10.534;2023-02-19T05:16:11;100632.75;;;7.29;85.94
6778;BME280;3426;52.244;10.534;2023-02-19T05:18:39;100645.31;;;7.44;85.69
6778;BME280;3426;52.244;10.534;2023-02-19T05:21:07;100643.47;;;7.46;87.34
6778;BME280;3426;52.244;10.534;2023-02-19T05:23:34;100639.91;;;7.47;83.19
6778;BME280;3426;52.244;10.534;2023-02-19T05:26:26;100642.69;;;7.44;85.09
6778;BME280;3426;52.244;10.534;2023-02-19T05:28:53;100643.41;;;7.88;82.18
6778;BME280;3426;52.244;10.534;2023-02-19T05:31:20;100665.78;;;6.23;85.51
6778;BME280;3426;52.244;10.534;2023-02-19T05:33:47;100666.16;;;7.28;84.49
6778;BME280;3426;52.244;10.534;2023-02-19T05:36:18;100684.97;;;6.74;83.18
6778;BME280;3426;52.244;10.534;2023-02-19T05:38:44;100708.81;;;6.69;83.94
6778;BME280;3426;52.244;10.534;2023-02-19T05:41:14;100717.44;;;6.96;84.73
6778;BME280;3426;52.244;10.534;2023-02-19T05:43:42;100735.78;;;6.76;85.25
6778;BME280;3426;52.244;10.534;2023-02-19T05:46:11;100737.09;;;6.64;84.22
6778;BME280;3426;52.244;10.534;2023-02-19T05:48:38;100741.25;;;6.46;84.64
6778;BME280;3426;52.244;10.534;2023-02-19T05:51:07;100734.34;;;6.19;86.19
6778;BME280;3426;52.244;10.534;2023-02-19T05:53:35;100732.22;;;6.53;86.55
6778;BME280;3426;52.244;10.534;2023-02-19T05:56:02;100737.59;;;6.50;86.74
6778;BME280;3426;52.244;10.534;2023-02-19T05:58:29;100748.78;;;6.32;85.94
6778;BME280;3426;52.244;10.534;2023-02-19T06:00:55;100751.84;;;6.20;86.62
6778;BME280;3426;52.244;10.534;2023-02-19T06:03:22;100758.34;;;6.83;83.60
6778;BME280;3426;52.244;10.534;2023-02-19T06:05:48;100769.72;;;5.82;86.99
6778;BME280;3426;52.244;10.534;2023-02-19T06:08:15;100777.53;;;5.83;84.90
6778;BME280;3426;52.244;10.534;2023-02-19T06:10:42;100783.09;;;6.02;85.20
6778;BME280;3426;52.244;10.534;2023-02-19T06:13:09;100783.34;;;5.67;84.89
6778;BME280;3426;52.244;10.534;2023-02-19T06:15:36;100794.66;;;5.13;86.50
6778;BME280;3426;52.244;10.534;2023-02-19T06:18:03;100789.03;;;5.53;83.38
6778;BME280;3426;52.244;10.534;2023-02-19T06:20:29;100799.16;;;5.93;81.29
6778;BME280;3426;52.244;10.534;2023-02-19T06:22:56;100799.59;;;5.79;81.67
6778;BME280;3426;52.244;10.534;2023-02-19T06:25:23;100807.34;;;6.10;80.35
6778;BME280;3426;52.244;10.534;2023-02-19T06:27:49;100813.41;;;6.39;80.24
6778;BME280;3426;52.244;10.534;2023-02-19T06:30:15;100824.44;;;5.41;83.10
6778;BME280;3426;52.244;10.534;2023-02-19T06:32:42;100820.31;;;5.89;81.14
6778;BME280;3426;52.244;10.534;2023-02-19T06:35:08;100841.28;;;5.34;84.02
6778;BME280;3426;52.244;10.534;2023-02-19T06:37:35;100847.44;;;6.19;83.06
6778;BME280;3426;52.244;10.534;2023-02-19T06:40:01;100848.63;;;6.85;79.67
6778;BME280;3426;52.244;10.534;2023-02-19T06:42:30;100861.66;;;6.64;78.99
6778;BME280;3426;52.244;10.534;2023-02-19T06:44:57;100866.16;;;5.52;82.38
6778;BME280;3426;52.244;10.534;2023-02-19T06:47:24;100873.06;;;6.63;81.34
6778;BME280;3426;52.244;10.534;2023-02-19T06:49:50;100887.28;;;6.33;79.96
6778;BME280;3426;52.244;10.534;2023-02-19T06:52:17;100896.00;;;6.60;79.52
6778;BME280;3426;52.244;10.534;2023-02-19T06:54:43;100905.66;;;6.06;82.02
6778;BME280;3426;52.244;10.534;2023-02-19T06:57:10;100906.03;;;6.22;79.87
6778;BME280;3426;52.244;10.534;2023-02-19T06:59:36;100913.13;;;6.20;79.58
6778;BME280;3426;52.244;10.534;2023-02-19T07:02:03;100915.38;;;6.84;80.24
6778;BME280;3426;52.244;10.534;2023-02-19T07:04:30;100930.13;;;6.36;79.18
6778;BME280;3426;52.244;10.534;2023-02-19T07:06:56;100929.34;;;7.11;77.60
6778;BME280;3426;52.244;10.534;2023-02-19T07:09:25;100933.75;;;7.10;77.21
6778;BME280;3426;52.244;10.534;2023-02-19T07:11:53;100932.63;;;6.41;78.48
6778;BME280;3426;52.244;10.534;2023-02-19T07:14:20;100951.72;;;6.46;79.34
6778;BME280;3426;52.244;10.534;2023-02-19T07:16:47;100953.19;;;7.06;78.17
6778;BME280;3426;52.244;10.534;2023-02-19T07:19:14;100960.72;;;7.17;76.29
6778;BME280;3426;52.244;10.534;2023-02-19T07:21:41;100964.59;;;7.07;77.49
6778;BME280;3426;52.244;10.534;2023-02-19T07:24:08;100978.16;;;6.70;78.15
6778;BME280;3426;52.244;10.534;2023-02-19T07:26:35;100984.53;;;6.89;77.27
6778;BME280;3426;52.244;10.534;2023-02-19T07:29:02;100989.78;;;7.15;76.17
6778;BME280;3426;52.244;10.534;2023-02-19T07:31:28;100996.03;;;7.61;74.89
6778;BME280;3426;52.244;10.534;2023-02-19T07:33:55;101004.97;;;7.81;73.94
6778;BME280;3426;52.244;10.534;2023-02-19T07:36:22;101018.44;;;6.98;75.25
6778;BME280;3426;52.244;10.534;2023-02-19T07:38:56;101014.81;;;6.76;79.60
6778;BME280;3426;52.244;10.534;2023-02-19T07:41:24;101031.50;;;6.19;80.66
6778;BME280;3426;52.244;10.534;2023-02-19T07:43:52;101037.00;;;5.78;81.67
6778;BME280;3426;52.244;10.534;2023-02-19T07:46:20;101036.41;;;6.31;80.57
6778;BME280;3426;52.244;10.534;2023-02-19T07:48:46;101035.63;;;7.35;77.49
6778;BME280;3426;52.244;10.534;2023-02-19T07:51:15;101036.66;;;6.78;78.77
6778;BME280;3426;52.244;10.534;2023-02-19T07:53:44;101037.38;;;6.83;79.38
6778;BME280;3426;52.244;10.534;2023-02-19T07:56:12;101039.84;;;7.14;79.44
6778;BME280;3426;52.244;10.534;2023-02-19T07:58:39;101042.44;;;7.15;79.97
6778;BME280;3426;52.244;10.534;2023-02-19T08:01:13;101058.63;;;6.21;81.12
6778;BME280;3426;52.244;10.534;2023-02-19T08:03:40;101058.31;;;7.39;77.95
6778;BME280;3426;52.244;10.534;2023-02-19T08:06:07;101064.03;;;6.72;79.77
6778;BME280;3426;52.244;10.534;2023-02-19T08:08:38;101072.00;;;6.71;80.53
6778;BME280;3426;52.244;10.534;2023-02-19T08:11:05;101073.47;;;6.79;81.05
6778;BME280;3426;52.244;10.534;2023-02-19T08:13:51;101072.28;;;7.41;79.11
6778;BME280;3426;52.244;10.534;2023-02-19T08:16:19;101077.16;;;6.16;81.70
6778;BME280;3426;52.244;10.534;2023-02-19T08:19:02;101089.63;;;6.39;80.93
6778;BME280;3426;52.244;10.534;2023-02-19T08:21:29;101080.31;;;6.85;81.04
6778;BME280;3426;52.244;10.534;2023-02-19T08:23:55;101089.44;;;6.73;80.92
6778;BME280;3426;52.244;10.534;2023-02-19T08:26:21;101095.84;;;6.36;81.39
6778;BME280;3426;52.244;10.534;2023-02-19T08:28:48;101089.28;;;7.32;79.37
6778;BME280;3426;52.244;10.534;2023-02-19T08:31:14;101093.50;;;7.11;79.96
6778;BME280;3426;52.244;10.534;2023-02-19T08:33:41;101101.59;;;7.82;78.44
6778;BME280;3426;52.244;10.534;2023-02-19T08:36:09;101105.69;;;7.40;79.78
6778;BME280;3426;52.244;10.534;2023-02-19T08:38:36;101126.41;;;6.70;79.67
6778;BME280;3426;52.244;10.534;2023-02-19T08:41:09;101132.81;;;6.61;81.27
6778;BME280;3426;52.244;10.534;2023-02-19T08:43:36;101128.94;;;6.73;81.24
6778;BME280;3426;52.244;10.534;2023-02-19T08:46:03;101138.88;;;7.46;79.57
6778;BME280;3426;52.244;10.534;2023-02-19T08:48:30;101142.25;;;8.01;77.33
6778;BME280;3426;52.244;10.534;2023-02-19T08:50:58;101150.78;;;7.05;79.39
6778;BME280;3426;52.244;10.534;2023-02-19T08:53:25;101154.69;;;7.20;79.19
6778;BME280;3426;52.244;10.534;2023-02-19T08:55:52;101164.03;;;7.02;77.53
6778;BME280;3426;52.244;10.534;2023-02-19T08:58:18;101156.44;;;7.21;80.56
6778;BME280;3426;52.244;10.534;2023-02-19T09:00:45;101156.97;;;6.74;81.73
6778;BME280;3426;52.244;10.534;2023-02-19T09:03:11;101162.31;;;7.80;77.92
6778;BME280;3426;52.244;10.534;2023-02-19T09:05:38;101167.88;;;7.73;76.96
6778;BME280;3426;52.244;10.534;2023-02-19T09:08:05;101171.50;;;7.95;76.92
6778;BME280;3426;52.244;10.534;2023-02-19T09:10:31;101185.56;;;7.94;75.82
6778;BME280;3426;52.244;10.534;2023-02-19T09:12:57;101174.53;;;8.08;77.82
6778;BME280;3426;52.244;10.534;2023-02-19T09:15:24;101185.22;;;7.25;77.90
6778;BME280;3426;52.244;10.534;2023-02-19T09:17:51;101179.50;;;7.12;79.72
6778;BME280;3426;52.244;10.534;2023-02-19T09:20:18;101192.59;;;7.95;78.66
6778;BME280;3426;52.244;10.534;2023-02-19T09:22:45;101191.56;;;7.20;79.05
6778;BME280;3426;52.244;10.534;2023-02-19T09:25:11;101187.47;;;7.90;76.71
6778;BME280;3426;52.244;10.534;2023-02-19T09:27:38;101191.00;;;8.39;76.09
6778;BME280;3426;52.244;10.534;2023-02-19T09:30:05;101182.03;;;8.90;72.49
6778;BME280;3426;52.244;10.534;2023-02-19T09:32:32;101169.31;;;9.66;72.12
6778;BME280;3426;52.244;10.534;2023-02-19T09:34:58;101185.53;;;9.14;73.09
6778;BME280;3426;52.244;10.534;2023-02-19T09:37:26;101191.44;;;8.52;73.35
6778;BME280;3426;52.244;10.534;2023-02-19T09:39:53;101186.38;;;9.99;70.18
6778;BME280;3426;52.244;10.534;2023-02-19T09:42:26;101192.22;;;8.54;72.81
6778;BME280;3426;52.244;10.534;2023-02-19T09:44:57;101192.03;;;9.70;71.24
6778;BME280;3426;52.244;10.534;2023-02-19T09:47:27;101200.59;;;9.97;69.19
6778;BME280;3426;52.244;10.534;2023-02-19T09:50:08;101215.31;;;10.24;68.35
6778;BME280;3426;52.244;10.534;2023-02-19T09:57:50;101215.19;;;10.27;67.30
6778;BME280;3426;52.244;10.534;2023-02-19T10:00:26;101218.13;;;9.57;67.44
6778;BME280;3426;52.244;10.534;2023-02-19T10:03:03;101228.91;;;9.31;70.19
6778;BME280;3426;52.244;10.534;2023-02-19T10:05:31;101233.78;;;8.24;70.82
6778;BME280;3426;52.244;10.534;2023-02-19T10:07:58;101242.28;;;9.04;70.04
6778;BME280;3426;52.244;10.534;2023-02-19T10:10:33;101236.59;;;10.01;67.89
6778;BME280;3426;52.244;10.534;2023-02-19T10:13:19;101234.31;;;10.34;66.71
6778;BME280;3426;52.244;10.534;2023-02-19T10:18:19;101264.59;;;10.47;65.92
6778;BME280;3426;52.244;10.534;2023-02-19T10:20:48;101275.09;;;10.08;66.04
6778;BME280;3426;52.244;10.534;2023-02-19T10:23:16;101278.28;;;9.52;66.41
6778;BME280;3426;52.244;10.534;2023-02-19T10:25:52;101280.16;;;9.92;67.74
6778;BME280;3426;52.244;10.534;2023-02-19T10:28:22;101280.88;;;9.08;69.11
6778;BME280;3426;52.244;10.534;2023-02-19T10:30:54;101291.38;;;9.77;67.58
6778;BME280;3426;52.244;10.534;2023-02-19T10:33:21;101287.41;;;10.09;66.98
6778;BME280;3426;52.244;10.534;2023-02-19T10:38:19;101302.66;;;10.02;66.43
6778;BME280;3426;52.244;10.534;2023-02-19T10:40:47;101300.63;;;10.31;65.23
6778;BME280;3426;52.244;10.534;2023-02-19T10:43:23;101303.91;;;10.77;64.51
6778;BME280;3426;52.244;10.534;2023-02-19T10:45:57;101314.03;;;10.26;62.80
6778;BME280;3426;52.244;10.534;2023-02-19T10:48:34;101325.13;;;9.26;65.25
6778;BME280;3426;52.244;10.534;2023-02-19T10:51:05;101345.34;;;9.95;64.50
6778;BME280;3426;52.244;10.534;2023-02-19T10:53:44;101337.41;;;9.27;63.48
6778;BME280;3426;52.244;10.534;2023-02-19T10:56:25;101350.63;;;9.95;63.58
6778;BME280;3426;52.244;10.534;2023-02-19T10:58:52;101346.50;;;9.66;64.11
6778;BME280;3426;52.244;10.534;2023-02-19T11:01:22;101344.69;;;9.44;65.35
6778;BME280;3426;52.244;10.534;2023-02-19T11:03:50;101344.22;;;10.22;63.92
6778;BME280;3426;52.244;10.534;2023-02-19T11:06:20;101348.34;;;9.86;64.06
6778;BME280;3426;52.244;10.534;2023-02-19T11:08:51;101344.22;;;10.00;63.57
6778;BME280;3426;52.244;10.534;2023-02-19T11:11:36;101336.03;;;9.85;60.28
6778;BME280;3426;52.244;10.534;2023-02-19T11:14:13;101339.53;;;10.07;61.62
6778;BME280;3426;52.244;10.534;2023-02-19T11:16:44;101331.56;;;9.65;62.80
6778;BME280;3426;52.244;10.534;2023-02-19T11:19:22;101326.06;;;10.13;62.82
6778;BME280;3426;52.244;10.534;2023-02-19T11:21:49;101326.59;;;9.34;64.02
6778;BME280;3426;52.244;10.534;2023-02-19T11:24:34;101333.13;;;9.00;64.96
6778;BME280;3426;52.244;10.534;2023-02-19T11:27:04;101331.88;;;9.34;63.92
6778;BME280;3426;52.244;10.534;2023-02-19T11:29:32;101341.91;;;9.25;65.03
6778;BME280;3426;52.244;10.534;2023-02-19T11:32:24;101344.97;;;9.82;62.75
6778;BME280;3426;52.244;10.534;2023-02-19T11:35:15;101339.41;;;10.32;60.74
6778;BME280;3426;52.244;10.534;2023-02-19T11:40:21;101346.28;;;10.36;61.43
6778;BME280;3426;52.244;10.534;2023-02-19T11:50:32;101344.00;;;9.39;59.49
6778;BME280;3426;52.244;10.534;2023-02-19T11:53:23;101337.09;;;9.12;60.84
6778;BME280;3426;52.244;10.534;2023-02-19T12:01:34;101345.69;;;9.86;60.61
6778;BME280;3426;52.244;10.534;2023-02-19T12:06:45;101362.06;;;9.73;58.43
6778;BME280;3426;52.244;10.534;2023-02-19T12:12:45;101363.25;;;8.71;58.52
6778;BME280;3426;52.244;10.534;2023-02-19T12:18:23;101360.47;;;9.46;60.23
6778;BME280;3426;52.244;10.534;2023-02-19T12:40:24;101362.31;;;9.89;53.94
6778;BME280;3426;52.244;10.534;2023-02-19T12:43:09;101368.41;;;9.91;55.41
6778;BME280;3426;52.244;10.534;2023-02-19T12:45:44;101372.31;;;9.36;56.35
6778;BME280;3426;52.244;10.534;2023-02-19T12:51:05;101373.00;;;9.64;55.21
6778;BME280;3426;52.244;10.534;2023-02-19T12:56:17;101374.22;;;9.09;55.98
6778;BME280;3426;52.244;10.534;2023-02-19T12:58:50;101390.94;;;10.45;54.72
6778;BME280;3426;52.244;10.534;2023-02-19T13:01:22;101394.22;;;9.63;54.31
6778;BME280;3426;52.244;10.534;2023-02-19T13:07:11;101391.53;;;10.52;52.89
6778;BME280;3426;52.244;10.534;2023-02-19T13:12:41;101390.00;;;9.80;55.60
6778;BME280;3426;52.244;10.534;2023-02-19T13:15:15;101403.66;;;10.57;54.37
6778;BME280;3426;52.244;10.534;2023-02-19T13:34:40;101416.34;;;10.05;52.70
6778;BME280;3426;52.244;10.534;2023-02-19T13:37:10;101421.13;;;9.74;54.26
6778;BME280;3426;52.244;10.534;2023-02-19T13:39:44;101402.94;;;10.74;51.87
6778;BME280;3426;52.244;10.534;2023-02-19T13:44:49;101402.13;;;10.93;49.84
6778;BME280;3426;52.244;10.534;2023-02-19T13:50:31;101406.28;;;9.70;53.09
6778;BME280;3426;52.244;10.534;2023-02-19T13:53:06;101401.25;;;10.72;50.68
6778;BME280;3426;52.244;10.534;2023-02-19T13:55:49;101397.44;;;10.79;50.20
6778;BME280;3426;52.244;10.534;2023-02-19T14:01:00;101389.97;;;10.68;50.12
6778;BME280;3426;52.244;10.534;2023-02-19T14:03:30;101387.06;;;10.10;50.23
6778;BME280;3426;52.244;10.534;2023-02-19T14:06:06;101388.59;;;9.72;53.06
6778;BME280;3426;52.244;10.534;2023-02-19T14:08:54;101385.56;;;10.47;51.33
6778;BME280;3426;52.244;10.534;2023-02-19T14:19:43;101376.47;;;11.13;49.84
6778;BME280;3426;52.244;10.534;2023-02-19T14:28:03;101389.53;;;10.77;50.01
6778;BME280;3426;52.244;10.534;2023-02-19T14:30:33;101381.50;;;11.20;49.52
6778;BME280;3426;52.244;10.534;2023-02-19T14:33:08;101385.28;;;10.32;50.94
6778;BME280;3426;52.244;10.534;2023-02-19T14:35:42;101389.44;;;9.72;52.22
6778;BME280;3426;52.244;10.534;2023-02-19T14:38:20;101392.09;;;10.16;51.07
6778;BME280;3426;52.244;10.534;2023-02-19T14:40:48;101391.97;;;9.52;51.73
6778;BME280;3426;52.244;10.534;2023-02-19T14:43:18;101400.03;;;9.94;51.84
6778;BME280;3426;52.244;10.534;2023-02-19T14:45:53;101395.13;;;8.91;52.52
6778;BME280;3426;52.244;10.534;2023-02-19T14:48:25;101397.03;;;9.58;51.11
6778;BME280;3426;52.244;10.534;2023-02-19T14:50:57;101402.78;;;10.57;50.17
6778;BME280;3426;52.244;10.534;2023-02-19T14:53:27;101420.22;;;9.51;52.02
6778;BME280;3426;52.244;10.534;2023-02-19T14:55:58;101425.94;;;10.08;51.18
6778;BME280;3426;52.244;10.534;2023-02-19T14:58:30;101422.38;;;9.40;52.17
6778;BME280;3426;52.244;10.534;2023-02-19T15:00:57;101428.69;;;10.28;51.15
6778;BME280;3426;52.244;10.534;2023-02-19T15:03:33;101436.06;;;9.98;52.10
6778;BME280;3426;52.244;10.534;2023-02-19T15:06:20;101426.22;;;10.66;50.05
6778;BME280;3426;52.244;10.534;2023-02-19T15:08:51;101430.50;;;10.28;51.81
6778;BME280;3426;52.244;10.534;2023-02-19T15:11:21;101418.19;;;10.27;50.89
6778;BME280;3426;52.244;10.534;2023-02-19T15:13:50;101426.78;;;10.10;51.00
6778;BME280;3426;52.244;10.534;2023-02-19T15:16:22;101423.63;;;10.22;50.79
6778;BME280;3426;52.244;10.534;2023-02-19T15:18:52;101419.91;;;9.82;51.76
6778;BME280;3426;52.244;10.534;2023-02-19T15:23:49;101426.34;;;9.52;52.34
6778;BME280;3426;52.244;10.534;2023-02-19T15:26:38;101434.84;;;10.29;50.76
6778;BME280;3426;52.244;10.534;2023-02-19T15:29:14;101425.56;;;9.95;52.48
6778;BME280;3426;52.244;10.534;2023-02-19T15:31:45;101410.28;;;10.68;49.63
6778;BME280;3426;52.244;10.534;2023-02-19T15:34:18;101414.16;;;10.17;51.51
6778;BME280;3426;52.244;10.534;2023-02-19T15:36:45;101411.78;;;9.65;51.98